sensor_id;sensor_type;location;lat;lon;timestamp;P1;durP1;ratioP1;P2;durP2;ratioP2
80541;SDS011;69870;51.460;8.842;2023-09-07T00:00:06;9.10;;;5.38;;
80541;SDS011;69870;51.460;8.842;2023-09-07T00:02:39;15.55;;;5.32;;
80541;SDS011;69870;51.460;8.842;2023-09-07T00:05:05;11.48;;;5.60;;
80541;SDS011;69870;51.460;8.842;2023-09-07T00:07:32;8.80;;;5.70;;
80541;SDS011;69870;51.460;8.842;2023-09-07T00:09:59;10.73;;;5.60;;
80541;SDS011;69870;51.460;8.842;2023-09-07T00:12:25;12.40;;;5.43;;
80541;SDS011;69870;51.460;8.842;2023-09-07T00:14:53;8.18;;;4.80;;
80541;SDS011;69870;51.460;8.842;2023-09-07T00:17:19;15.80;;;5.97;;
80541;SDS011;69870;51.460;8.842;2023-09-07T00:19:48;14.45;;;5.63;;
80541;SDS011;69870;51.460;8.842;2023-09-07T00:22:16;11.05;;;5.38;;
80541;SDS011;69870;51.460;8.842;2023-09-07T00:24:42;12.57;;;5.53;;
80541;SDS011;69870;51.460;8.842;2023-09-07T00:29:36;10.52;;;5.47;;
80541;SDS011;69870;51.460;8.842;2023-09-07T00:32:03;11.43;;;6.40;;
80541;SDS011;69870;51.460;8.842;2023-09-07T00:34:30;10.05;;;6.30;;
80541;SDS011;69870;51.460;8.842;2023-09-07T00:37:00;23.13;;;6.65;;
80541;SDS011;69870;51.460;8.842;2023-09-07T00:39:27;11.05;;;5.25;;
80541;SDS011;69870;51.460;8.842;2023-09-07T00:41:54;13.45;;;6.65;;
80541;SDS011;69870;51.460;8.842;2023-09-07T00:44:21;14.10;;;6.10;;
80541;SDS011;69870;51.460;8.842;2023-09-07T00:46:47;17.27;;;6.20;;
80541;SDS011;69870;51.460;8.842;2023-09-07T00:49:16;29.70;;;6.93;;
80541;SDS011;69870;51.460;8.842;2023-09-07T00:51:43;8.85;;;5.55;;
80541;SDS011;69870;51.460;8.842;2023-09-07T00:54:11;12.90;;;6.10;;
80541;SDS011;69870;51.460;8.842;2023-09-07T00:56:38;11.57;;;6.88;;
80541;SDS011;69870;51.460;8.842;2023-09-07T00:59:06;10.10;;;6.07;;
80541;SDS011;69870;51.460;8.842;2023-09-07T01:01:34;11.25;;;6.25;;
80541;SDS011;69870;51.460;8.842;2023-09-07T01:04:01;12.63;;;6.28;;
80541;SDS011;69870;51.460;8.842;2023-09-07T01:06:29;12.73;;;6.00;;
80541;SDS011;69870;51.460;8.842;2023-09-07T01:09:01;14.43;;;7.10;;
80541;SDS011;69870;51.460;8.842;2023-09-07T01:11:36;11.10;;;6.73;;
80541;SDS011;69870;51.460;8.842;2023-09-07T01:14:04;10.32;;;5.88;;
80541;SDS011;69870;51.460;8.842;2023-09-07T01:16:31;19.60;;;6.65;;
80541;SDS011;69870;51.460;8.842;2023-09-07T01:19:00;15.85;;;6.72;;
80541;SDS011;69870;51.460;8.842;2023-09-07T01:21:27;14.82;;;6.53;;
80541;SDS011;69870;51.460;8.842;2023-09-07T01:23:55;10.50;;;6.30;;
80541;SDS011;69870;51.460;8.842;2023-09-07T01:26:23;9.63;;;6.50;;
80541;SDS011;69870;51.460;8.842;2023-09-07T01:28:50;11.70;;;5.68;;
80541;SDS011;69870;51.460;8.842;2023-09-07T01:31:17;11.10;;;6.00;;
80541;SDS011;69870;51.460;8.842;2023-09-07T01:33:44;11.32;;;5.93;;
80541;SDS011;69870;51.460;8.842;2023-09-07T01:36:11;8.75;;;6.05;;
80541;SDS011;69870;51.460;8.842;2023-09-07T01:38:38;10.25;;;6.22;;
80541;SDS011;69870;51.460;8.842;2023-09-07T01:41:06;12.07;;;6.93;;
80541;SDS011;69870;51.460;8.842;2023-09-07T01:43:32;15.20;;;6.18;;
80541;SDS011;69870;51.460;8.842;2023-09-07T01:45:59;8.55;;;6.88;;
80541;SDS011;69870;51.460;8.842;2023-09-07T01:48:26;13.73;;;5.80;;
80541;SDS011;69870;51.460;8.842;2023-09-07T01:50:52;16.50;;;7.55;;
80541;SDS011;69870;51.460;8.842;2023-09-07T01:53:19;12.20;;;6.70;;
80541;SDS011;69870;51.460;8.842;2023-09-07T01:55:46;19.70;;;7.15;;
80541;SDS011;69870;51.460;8.842;2023-09-07T01:58:15;9.70;;;6.38;;
80541;SDS011;69870;51.460;8.842;2023-09-07T02:00:41;13.95;;;6.38;;
80541;SDS011;69870;51.460;8.842;2023-09-07T02:03:08;13.18;;;7.07;;
80541;SDS011;69870;51.460;8.842;2023-09-07T02:05:35;11.60;;;6.40;;
80541;SDS011;69870;51.460;8.842;2023-09-07T02:08:02;15.32;;;6.05;;
80541;SDS011;69870;51.460;8.842;2023-09-07T02:10:29;22.00;;;7.78;;
80541;SDS011;69870;51.460;8.842;2023-09-07T02:12:56;18.50;;;7.53;;
80541;SDS011;69870;51.460;8.842;2023-09-07T02:15:24;11.50;;;5.53;;
80541;SDS011;69870;51.460;8.842;2023-09-07T02:17:51;13.15;;;6.32;;
80541;SDS011;69870;51.460;8.842;2023-09-07T02:20:20;9.48;;;6.40;;
80541;SDS011;69870;51.460;8.842;2023-09-07T02:22:46;12.13;;;7.20;;
80541;SDS011;69870;51.460;8.842;2023-09-07T02:25:13;11.35;;;6.32;;
80541;SDS011;69870;51.460;8.842;2023-09-07T02:27:40;10.32;;;6.10;;
80541;SDS011;69870;51.460;8.842;2023-09-07T02:30:07;11.02;;;6.40;;
80541;SDS011;69870;51.460;8.842;2023-09-07T02:32:35;19.13;;;6.30;;
80541;SDS011;69870;51.460;8.842;2023-09-07T02:35:02;15.27;;;6.90;;
80541;SDS011;69870;51.460;8.842;2023-09-07T02:37:29;14.48;;;6.40;;
80541;SDS011;69870;51.460;8.842;2023-09-07T02:39:56;13.20;;;6.43;;
80541;SDS011;69870;51.460;8.842;2023-09-07T02:42:22;11.15;;;6.35;;
80541;SDS011;69870;51.460;8.842;2023-09-07T02:44:49;12.30;;;6.90;;
80541;SDS011;69870;51.460;8.842;2023-09-07T02:47:16;8.55;;;6.18;;
80541;SDS011;69870;51.460;8.842;2023-09-07T02:49:44;11.88;;;5.80;;
80541;SDS011;69870;51.460;8.842;2023-09-07T02:52:11;13.88;;;5.90;;
80541;SDS011;69870;51.460;8.842;2023-09-07T02:54:38;17.20;;;6.65;;
80541;SDS011;69870;51.460;8.842;2023-09-07T02:57:04;11.73;;;6.68;;
80541;SDS011;69870;51.460;8.842;2023-09-07T02:59:31;15.05;;;7.20;;
80541;SDS011;69870;51.460;8.842;2023-09-07T03:01:58;12.48;;;6.70;;
80541;SDS011;69870;51.460;8.842;2023-09-07T03:04:24;13.27;;;6.40;;
80541;SDS011;69870;51.460;8.842;2023-09-07T03:06:52;11.30;;;6.22;;
80541;SDS011;69870;51.460;8.842;2023-09-07T03:09:19;12.18;;;6.50;;
80541;SDS011;69870;51.460;8.842;2023-09-07T03:11:46;10.32;;;5.78;;
80541;SDS011;69870;51.460;8.842;2023-09-07T03:14:12;10.52;;;6.65;;
80541;SDS011;69870;51.460;8.842;2023-09-07T03:16:39;19.33;;;6.20;;
80541;SDS011;69870;51.460;8.842;2023-09-07T03:19:06;15.25;;;6.57;;
80541;SDS011;69870;51.460;8.842;2023-09-07T03:21:33;14.45;;;6.18;;
80541;SDS011;69870;51.460;8.842;2023-09-07T03:24:01;8.73;;;6.35;;
80541;SDS011;69870;51.460;8.842;2023-09-07T03:26:28;11.75;;;7.13;;
80541;SDS011;69870;51.460;8.842;2023-09-07T03:28:54;20.10;;;7.20;;
80541;SDS011;69870;51.460;8.842;2023-09-07T03:31:23;11.32;;;6.13;;
80541;SDS011;69870;51.460;8.842;2023-09-07T03:33:50;12.75;;;6.82;;
80541;SDS011;69870;51.460;8.842;2023-09-07T03:36:17;17.60;;;7.45;;
80541;SDS011;69870;51.460;8.842;2023-09-07T03:38:43;15.00;;;6.63;;
80541;SDS011;69870;51.460;8.842;2023-09-07T03:41:13;10.93;;;6.75;;
80541;SDS011;69870;51.460;8.842;2023-09-07T03:43:40;16.02;;;7.10;;
80541;SDS011;69870;51.460;8.842;2023-09-07T03:46:06;9.95;;;6.57;;
80541;SDS011;69870;51.460;8.842;2023-09-07T03:48:34;11.00;;;6.38;;
80541;SDS011;69870;51.460;8.842;2023-09-07T03:51:05;11.35;;;7.00;;
80541;SDS011;69870;51.460;8.842;2023-09-07T03:53:32;9.35;;;6.53;;
80541;SDS011;69870;51.460;8.842;2023-09-07T03:55:59;16.02;;;6.78;;
80541;SDS011;69870;51.460;8.842;2023-09-07T03:58:30;14.55;;;7.20;;
80541;SDS011;69870;51.460;8.842;2023-09-07T04:00:58;13.48;;;7.00;;
80541;SDS011;69870;51.460;8.842;2023-09-07T04:03:25;10.25;;;6.13;;
80541;SDS011;69870;51.460;8.842;2023-09-07T04:05:52;10.13;;;6.30;;
80541;SDS011;69870;51.460;8.842;2023-09-07T04:08:18;15.00;;;6.82;;
80541;SDS011;69870;51.460;8.842;2023-09-07T04:10:45;10.93;;;6.60;;
80541;SDS011;69870;51.460;8.842;2023-09-07T04:13:12;13.07;;;6.43;;
80541;SDS011;69870;51.460;8.842;2023-09-07T04:15:42;17.35;;;7.47;;
80541;SDS011;69870;51.460;8.842;2023-09-07T04:18:10;16.25;;;7.07;;
80541;SDS011;69870;51.460;8.842;2023-09-07T04:20:38;16.45;;;7.20;;
80541;SDS011;69870;51.460;8.842;2023-09-07T04:23:05;15.80;;;6.28;;
80541;SDS011;69870;51.460;8.842;2023-09-07T04:25:32;17.65;;;7.45;;
80541;SDS011;69870;51.460;8.842;2023-09-07T04:27:58;12.52;;;6.97;;
80541;SDS011;69870;51.460;8.842;2023-09-07T04:30:25;11.95;;;7.25;;
80541;SDS011;69870;51.460;8.842;2023-09-07T04:32:53;15.63;;;6.88;;
80541;SDS011;69870;51.460;8.842;2023-09-07T04:35:20;10.82;;;6.20;;
80541;SDS011;69870;51.460;8.842;2023-09-07T04:37:46;9.70;;;7.00;;
80541;SDS011;69870;51.460;8.842;2023-09-07T04:40:13;11.95;;;7.13;;
80541;SDS011;69870;51.460;8.842;2023-09-07T04:42:39;11.40;;;6.35;;
80541;SDS011;69870;51.460;8.842;2023-09-07T04:45:07;16.95;;;6.82;;
80541;SDS011;69870;51.460;8.842;2023-09-07T04:47:34;15.27;;;7.20;;
80541;SDS011;69870;51.460;8.842;2023-09-07T04:50:04;19.00;;;7.55;;
80541;SDS011;69870;51.460;8.842;2023-09-07T04:52:31;12.30;;;7.30;;
80541;SDS011;69870;51.460;8.842;2023-09-07T04:55:00;13.20;;;7.28;;
80541;SDS011;69870;51.460;8.842;2023-09-07T04:57:27;17.60;;;7.65;;
80541;SDS011;69870;51.460;8.842;2023-09-07T04:59:54;17.92;;;7.55;;
80541;SDS011;69870;51.460;8.842;2023-09-07T05:02:20;22.20;;;8.50;;
80541;SDS011;69870;51.460;8.842;2023-09-07T05:04:47;14.98;;;7.30;;
80541;SDS011;69870;51.460;8.842;2023-09-07T05:07:16;13.73;;;7.47;;
80541;SDS011;69870;51.460;8.842;2023-09-07T05:09:43;15.13;;;7.13;;
80541;SDS011;69870;51.460;8.842;2023-09-07T05:12:09;9.27;;;6.68;;
80541;SDS011;69870;51.460;8.842;2023-09-07T05:14:36;10.05;;;7.22;;
80541;SDS011;69870;51.460;8.842;2023-09-07T05:17:03;16.67;;;7.43;;
80541;SDS011;69870;51.460;8.842;2023-09-07T05:19:30;15.88;;;8.00;;
80541;SDS011;69870;51.460;8.842;2023-09-07T05:21:56;17.88;;;9.20;;
80541;SDS011;69870;51.460;8.842;2023-09-07T05:24:24;17.17;;;8.05;;
80541;SDS011;69870;51.460;8.842;2023-09-07T05:26:51;14.55;;;8.05;;
80541;SDS011;69870;51.460;8.842;2023-09-07T05:29:18;14.48;;;8.48;;
80541;SDS011;69870;51.460;8.842;2023-09-07T05:31:45;16.23;;;8.05;;
80541;SDS011;69870;51.460;8.842;2023-09-07T05:34:12;18.73;;;8.98;;
80541;SDS011;69870;51.460;8.842;2023-09-07T05:36:39;24.27;;;8.02;;
80541;SDS011;69870;51.460;8.842;2023-09-07T05:39:05;19.13;;;8.48;;
80541;SDS011;69870;51.460;8.842;2023-09-07T05:41:33;18.10;;;7.78;;
80541;SDS011;69870;51.460;8.842;2023-09-07T05:44:00;21.55;;;8.25;;
80541;SDS011;69870;51.460;8.842;2023-09-07T05:46:27;19.25;;;8.40;;
80541;SDS011;69870;51.460;8.842;2023-09-07T05:48:54;16.02;;;7.90;;
80541;SDS011;69870;51.460;8.842;2023-09-07T05:51:21;14.88;;;8.80;;
80541;SDS011;69870;51.460;8.842;2023-09-07T05:53:47;20.73;;;8.73;;
80541;SDS011;69870;51.460;8.842;2023-09-07T05:56:14;14.90;;;8.07;;
80541;SDS011;69870;51.460;8.842;2023-09-07T05:58:42;14.73;;;8.98;;
80541;SDS011;69870;51.460;8.842;2023-09-07T06:01:09;22.38;;;9.05;;
80541;SDS011;69870;51.460;8.842;2023-09-07T06:03:36;30.50;;;10.43;;
80541;SDS011;69870;51.460;8.842;2023-09-07T06:06:04;14.27;;;7.32;;
80541;SDS011;69870;51.460;8.842;2023-09-07T06:08:31;20.63;;;7.75;;
80541;SDS011;69870;51.460;8.842;2023-09-07T06:10:57;13.23;;;7.00;;
80541;SDS011;69870;51.460;8.842;2023-09-07T06:13:25;18.15;;;7.50;;
80541;SDS011;69870;51.460;8.842;2023-09-07T06:15:53;17.15;;;7.68;;
80541;SDS011;69870;51.460;8.842;2023-09-07T06:18:19;11.40;;;6.57;;
80541;SDS011;69870;51.460;8.842;2023-09-07T06:20:46;10.65;;;7.45;;
80541;SDS011;69870;51.460;8.842;2023-09-07T06:23:13;16.83;;;7.55;;
80541;SDS011;69870;51.460;8.842;2023-09-07T06:25:39;18.08;;;6.88;;
80541;SDS011;69870;51.460;8.842;2023-09-07T06:28:06;13.88;;;6.57;;
80541;SDS011;69870;51.460;8.842;2023-09-07T06:30:33;14.93;;;6.82;;
80541;SDS011;69870;51.460;8.842;2023-09-07T06:33:01;13.75;;;6.55;;
80541;SDS011;69870;51.460;8.842;2023-09-07T06:35:27;12.85;;;6.85;;
80541;SDS011;69870;51.460;8.842;2023-09-07T06:37:54;15.48;;;6.43;;
80541;SDS011;69870;51.460;8.842;2023-09-07T06:40:23;18.75;;;7.78;;
80541;SDS011;69870;51.460;8.842;2023-09-07T06:42:52;14.38;;;6.97;;
80541;SDS011;69870;51.460;8.842;2023-09-07T06:45:21;20.50;;;6.72;;
80541;SDS011;69870;51.460;8.842;2023-09-07T06:47:49;19.55;;;6.65;;
80541;SDS011;69870;51.460;8.842;2023-09-07T06:50:18;13.95;;;6.43;;
80541;SDS011;69870;51.460;8.842;2023-09-07T06:52:46;10.48;;;6.30;;
80541;SDS011;69870;51.460;8.842;2023-09-07T06:55:13;17.63;;;7.00;;
80541;SDS011;69870;51.460;8.842;2023-09-07T06:57:39;11.63;;;6.28;;
80541;SDS011;69870;51.460;8.842;2023-09-07T07:00:07;11.88;;;6.22;;
80541;SDS011;69870;51.460;8.842;2023-09-07T07:02:35;13.25;;;6.63;;
80541;SDS011;69870;51.460;8.842;2023-09-07T07:05:02;7.95;;;5.55;;
80541;SDS011;69870;51.460;8.842;2023-09-07T07:07:32;17.02;;;6.00;;
80541;SDS011;69870;51.460;8.842;2023-09-07T07:09:59;12.40;;;5.88;;
80541;SDS011;69870;51.460;8.842;2023-09-07T07:12:27;18.55;;;6.55;;
80541;SDS011;69870;51.460;8.842;2023-09-07T07:14:53;11.60;;;6.50;;
80541;SDS011;69870;51.460;8.842;2023-09-07T07:17:20;17.63;;;6.20;;
80541;SDS011;69870;51.460;8.842;2023-09-07T07:19:47;12.80;;;5.72;;
80541;SDS011;69870;51.460;8.842;2023-09-07T07:22:13;11.13;;;6.28;;
80541;SDS011;69870;51.460;8.842;2023-09-07T07:24:41;17.70;;;6.85;;
80541;SDS011;69870;51.460;8.842;2023-09-07T07:27:08;10.30;;;6.35;;
80541;SDS011;69870;51.460;8.842;2023-09-07T07:29:36;16.45;;;6.55;;
80541;SDS011;69870;51.460;8.842;2023-09-07T07:32:03;12.05;;;5.88;;
80541;SDS011;69870;51.460;8.842;2023-09-07T07:34:30;13.13;;;6.40;;
80541;SDS011;69870;51.460;8.842;2023-09-07T07:36:57;9.00;;;6.43;;
80541;SDS011;69870;51.460;8.842;2023-09-07T07:39:24;11.80;;;6.28;;
80541;SDS011;69870;51.460;8.842;2023-09-07T07:41:53;12.52;;;8.10;;
80541;SDS011;69870;51.460;8.842;2023-09-07T07:44:20;11.73;;;6.75;;
80541;SDS011;69870;51.460;8.842;2023-09-07T07:46:47;14.50;;;6.30;;
80541;SDS011;69870;51.460;8.842;2023-09-07T07:49:15;14.27;;;7.45;;
80541;SDS011;69870;51.460;8.842;2023-09-07T07:51:41;15.60;;;6.93;;
80541;SDS011;69870;51.460;8.842;2023-09-07T07:54:08;14.82;;;7.28;;
80541;SDS011;69870;51.460;8.842;2023-09-07T07:56:35;15.48;;;7.07;;
80541;SDS011;69870;51.460;8.842;2023-09-07T07:59:05;12.30;;;6.45;;
80541;SDS011;69870;51.460;8.842;2023-09-07T08:01:32;15.93;;;6.25;;
80541;SDS011;69870;51.460;8.842;2023-09-07T08:04:00;16.33;;;6.68;;
80541;SDS011;69870;51.460;8.842;2023-09-07T08:06:27;12.13;;;6.32;;
80541;SDS011;69870;51.460;8.842;2023-09-07T08:08:54;18.83;;;7.15;;
80541;SDS011;69870;51.460;8.842;2023-09-07T08:11:21;11.32;;;6.50;;
80541;SDS011;69870;51.460;8.842;2023-09-07T08:13:49;16.75;;;9.00;;
80541;SDS011;69870;51.460;8.842;2023-09-07T08:16:17;21.75;;;8.32;;
80541;SDS011;69870;51.460;8.842;2023-09-07T08:18:44;22.08;;;10.70;;
80541;SDS011;69870;51.460;8.842;2023-09-07T08:21:11;15.43;;;9.70;;
80541;SDS011;69870;51.460;8.842;2023-09-07T08:23:40;17.48;;;10.30;;
80541;SDS011;69870;51.460;8.842;2023-09-07T08:26:07;17.88;;;10.48;;
80541;SDS011;69870;51.460;8.842;2023-09-07T08:28:36;24.48;;;10.52;;
80541;SDS011;69870;51.460;8.842;2023-09-07T08:31:03;15.55;;;8.90;;
80541;SDS011;69870;51.460;8.842;2023-09-07T08:33:31;18.38;;;9.02;;
80541;SDS011;69870;51.460;8.842;2023-09-07T08:36:00;15.65;;;8.73;;
80541;SDS011;69870;51.460;8.842;2023-09-07T08:38:29;11.68;;;7.38;;
80541;SDS011;69870;51.460;8.842;2023-09-07T08:40:57;14.52;;;7.85;;
80541;SDS011;69870;51.460;8.842;2023-09-07T08:43:28;11.23;;;7.65;;
80541;SDS011;69870;51.460;8.842;2023-09-07T08:45:58;14.52;;;7.28;;
80541;SDS011;69870;51.460;8.842;2023-09-07T08:48:36;18.17;;;7.57;;
80541;SDS011;69870;51.460;8.842;2023-09-07T08:51:03;15.20;;;7.00;;
80541;SDS011;69870;51.460;8.842;2023-09-07T08:53:31;13.52;;;6.57;;
80541;SDS011;69870;51.460;8.842;2023-09-07T08:55:59;12.85;;;6.35;;
80541;SDS011;69870;51.460;8.842;2023-09-07T08:58:27;11.48;;;6.30;;
80541;SDS011;69870;51.460;8.842;2023-09-07T09:00:54;12.45;;;5.57;;
80541;SDS011;69870;51.460;8.842;2023-09-07T09:03:22;11.85;;;6.03;;
80541;SDS011;69870;51.460;8.842;2023-09-07T09:05:50;12.13;;;6.10;;
80541;SDS011;69870;51.460;8.842;2023-09-07T09:08:19;11.73;;;5.75;;
80541;SDS011;69870;51.460;8.842;2023-09-07T09:10:49;7.97;;;5.80;;
80541;SDS011;69870;51.460;8.842;2023-09-07T09:13:29;6.63;;;5.43;;
80541;SDS011;69870;51.460;8.842;2023-09-07T09:15:58;6.90;;;5.07;;
80541;SDS011;69870;51.460;8.842;2023-09-07T09:18:26;7.18;;;5.05;;
80541;SDS011;69870;51.460;8.842;2023-09-07T09:20:54;11.63;;;5.03;;
80541;SDS011;69870;51.460;8.842;2023-09-07T09:23:22;14.15;;;5.80;;
80541;SDS011;69870;51.460;8.842;2023-09-07T09:25:48;12.90;;;5.18;;
80541;SDS011;69870;51.460;8.842;2023-09-07T09:28:15;12.82;;;4.93;;
80541;SDS011;69870;51.460;8.842;2023-09-07T09:30:41;7.70;;;4.45;;
80541;SDS011;69870;51.460;8.842;2023-09-07T09:33:09;14.35;;;4.72;;
80541;SDS011;69870;51.460;8.842;2023-09-07T09:35:36;12.88;;;5.10;;
80541;SDS011;69870;51.460;8.842;2023-09-07T09:38:04;9.13;;;4.85;;
80541;SDS011;69870;51.460;8.842;2023-09-07T09:40:31;6.95;;;4.60;;
80541;SDS011;69870;51.460;8.842;2023-09-07T09:43:00;8.23;;;4.65;;
80541;SDS011;69870;51.460;8.842;2023-09-07T09:45:28;8.32;;;3.97;;
80541;SDS011;69870;51.460;8.842;2023-09-07T09:47:55;7.50;;;4.32;;
80541;SDS011;69870;51.460;8.842;2023-09-07T09:50:22;5.90;;;3.97;;
80541;SDS011;69870;51.460;8.842;2023-09-07T09:52:49;6.82;;;4.25;;
80541;SDS011;69870;51.460;8.842;2023-09-07T09:55:19;8.35;;;5.20;;
80541;SDS011;69870;51.460;8.842;2023-09-07T09:57:46;10.00;;;5.25;;
80541;SDS011;69870;51.460;8.842;2023-09-07T10:00:13;5.63;;;4.57;;
80541;SDS011;69870;51.460;8.842;2023-09-07T10:02:53;6.65;;;5.28;;
80541;SDS011;69870;51.460;8.842;2023-09-07T10:05:25;12.68;;;5.20;;
80541;SDS011;69870;51.460;8.842;2023-09-07T10:07:52;8.68;;;5.28;;
80541;SDS011;69870;51.460;8.842;2023-09-07T10:10:20;11.20;;;6.32;;
80541;SDS011;69870;51.460;8.842;2023-09-07T10:12:50;19.50;;;10.02;;
80541;SDS011;69870;51.460;8.842;2023-09-07T10:15:21;8.52;;;5.55;;
80541;SDS011;69870;51.460;8.842;2023-09-07T10:17:49;18.67;;;10.00;;
80541;SDS011;69870;51.460;8.842;2023-09-07T10:20:18;15.00;;;7.70;;
80541;SDS011;69870;51.460;8.842;2023-09-07T10:22:47;15.50;;;7.75;;
80541;SDS011;69870;51.460;8.842;2023-09-07T10:25:19;10.43;;;5.55;;
80541;SDS011;69870;51.460;8.842;2023-09-07T10:27:47;9.90;;;4.65;;
80541;SDS011;69870;51.460;8.842;2023-09-07T10:30:14;11.77;;;5.18;;
80541;SDS011;69870;51.460;8.842;2023-09-07T10:32:44;5.82;;;4.18;;
80541;SDS011;69870;51.460;8.842;2023-09-07T10:35:12;7.20;;;4.68;;
80541;SDS011;69870;51.460;8.842;2023-09-07T10:37:40;6.45;;;3.63;;
80541;SDS011;69870;51.460;8.842;2023-09-07T10:40:07;7.50;;;4.43;;
80541;SDS011;69870;51.460;8.842;2023-09-07T10:42:38;6.85;;;4.03;;
80541;SDS011;69870;51.460;8.842;2023-09-07T10:45:09;8.65;;;4.45;;
80541;SDS011;69870;51.460;8.842;2023-09-07T10:47:40;5.38;;;4.35;;
80541;SDS011;69870;51.460;8.842;2023-09-07T10:50:07;7.78;;;4.30;;
80541;SDS011;69870;51.460;8.842;2023-09-07T10:52:34;5.18;;;4.32;;
80541;SDS011;69870;51.460;8.842;2023-09-07T10:55:01;10.02;;;4.82;;
80541;SDS011;69870;51.460;8.842;2023-09-07T10:57:28;6.80;;;4.35;;
80541;SDS011;69870;51.460;8.842;2023-09-07T10:59:56;7.45;;;4.60;;
80541;SDS011;69870;51.460;8.842;2023-09-07T11:02:22;9.00;;;4.35;;
80541;SDS011;69870;51.460;8.842;2023-09-07T11:04:49;7.47;;;4.65;;
80541;SDS011;69870;51.460;8.842;2023-09-07T11:07:15;5.82;;;4.18;;
80541;SDS011;69870;51.460;8.842;2023-09-07T11:09:51;5.57;;;4.60;;
80541;SDS011;69870;51.460;8.842;2023-09-07T11:12:19;9.43;;;4.43;;
80541;SDS011;69870;51.460;8.842;2023-09-07T11:14:46;5.13;;;4.13;;
80541;SDS011;69870;51.460;8.842;2023-09-07T11:17:15;7.80;;;4.20;;
80541;SDS011;69870;51.460;8.842;2023-09-07T11:19:42;5.13;;;3.95;;
80541;SDS011;69870;51.460;8.842;2023-09-07T11:22:09;9.68;;;4.13;;
80541;SDS011;69870;51.460;8.842;2023-09-07T11:24:35;9.50;;;4.25;;
80541;SDS011;69870;51.460;8.842;2023-09-07T11:27:02;6.10;;;3.95;;
80541;SDS011;69870;51.460;8.842;2023-09-07T11:29:30;5.20;;;3.80;;
80541;SDS011;69870;51.460;8.842;2023-09-07T11:32:05;7.18;;;3.75;;
80541;SDS011;69870;51.460;8.842;2023-09-07T11:34:34;13.05;;;4.38;;
80541;SDS011;69870;51.460;8.842;2023-09-07T11:37:01;5.72;;;4.03;;
80541;SDS011;69870;51.460;8.842;2023-09-07T11:39:29;9.65;;;4.18;;
80541;SDS011;69870;51.460;8.842;2023-09-07T11:41:55;4.82;;;3.97;;
80541;SDS011;69870;51.460;8.842;2023-09-07T11:44:22;12.05;;;3.97;;
80541;SDS011;69870;51.460;8.842;2023-09-07T11:46:49;9.48;;;3.72;;
80541;SDS011;69870;51.460;8.842;2023-09-07T11:49:15;7.20;;;3.92;;
80541;SDS011;69870;51.460;8.842;2023-09-07T11:51:46;6.82;;;3.83;;
80541;SDS011;69870;51.460;8.842;2023-09-07T11:54:13;8.25;;;3.90;;
80541;SDS011;69870;51.460;8.842;2023-09-07T11:56:39;6.18;;;3.95;;
80541;SDS011;69870;51.460;8.842;2023-09-07T11:59:08;7.80;;;3.58;;
80541;SDS011;69870;51.460;8.842;2023-09-07T12:01:34;6.53;;;3.97;;
80541;SDS011;69870;51.460;8.842;2023-09-07T12:04:01;8.38;;;4.13;;
80541;SDS011;69870;51.460;8.842;2023-09-07T12:06:29;6.10;;;4.03;;
80541;SDS011;69870;51.460;8.842;2023-09-07T12:09:00;7.55;;;3.90;;
80541;SDS011;69870;51.460;8.842;2023-09-07T12:11:28;8.38;;;3.72;;
80541;SDS011;69870;51.460;8.842;2023-09-07T12:13:55;10.63;;;4.05;;
80541;SDS011;69870;51.460;8.842;2023-09-07T12:16:22;11.32;;;4.03;;
80541;SDS011;69870;51.460;8.842;2023-09-07T12:18:49;9.27;;;4.53;;
80541;SDS011;69870;51.460;8.842;2023-09-07T12:21:15;7.45;;;4.20;;
80541;SDS011;69870;51.460;8.842;2023-09-07T12:23:42;6.22;;;4.30;;
80541;SDS011;69870;51.460;8.842;2023-09-07T12:26:10;7.00;;;3.90;;
80541;SDS011;69870;51.460;8.842;2023-09-07T12:28:37;7.47;;;4.30;;
80541;SDS011;69870;51.460;8.842;2023-09-07T12:31:04;8.85;;;4.38;;
80541;SDS011;69870;51.460;8.842;2023-09-07T12:33:31;4.43;;;3.88;;
80541;SDS011;69870;51.460;8.842;2023-09-07T12:35:58;5.47;;;3.80;;
80541;SDS011;69870;51.460;8.842;2023-09-07T12:38:24;9.88;;;4.47;;
80541;SDS011;69870;51.460;8.842;2023-09-07T12:40:53;4.60;;;3.55;;
80541;SDS011;69870;51.460;8.842;2023-09-07T12:43:21;9.27;;;3.95;;
80541;SDS011;69870;51.460;8.842;2023-09-07T12:45:49;12.48;;;4.38;;
80541;SDS011;69870;51.460;8.842;2023-09-07T12:48:16;7.13;;;4.18;;
80541;SDS011;69870;51.460;8.842;2023-09-07T12:50:43;7.30;;;4.15;;
80541;SDS011;69870;51.460;8.842;2023-09-07T12:53:09;9.70;;;3.83;;
80541;SDS011;69870;51.460;8.842;2023-09-07T12:55:36;9.25;;;4.40;;
80541;SDS011;69870;51.460;8.842;2023-09-07T12:58:02;6.63;;;3.80;;
80541;SDS011;69870;51.460;8.842;2023-09-07T13:00:30;7.72;;;4.25;;
80541;SDS011;69870;51.460;8.842;2023-09-07T13:02:57;5.10;;;3.90;;
80541;SDS011;69870;51.460;8.842;2023-09-07T13:05:24;5.40;;;3.53;;
80541;SDS011;69870;51.460;8.842;2023-09-07T13:07:50;5.00;;;3.60;;
80541;SDS011;69870;51.460;8.842;2023-09-07T13:10:17;9.10;;;3.53;;
80541;SDS011;69870;51.460;8.842;2023-09-07T13:12:44;8.82;;;4.30;;
80541;SDS011;69870;51.460;8.842;2023-09-07T13:15:10;7.53;;;3.85;;
80541;SDS011;69870;51.460;8.842;2023-09-07T13:17:42;6.40;;;3.85;;
80541;SDS011;69870;51.460;8.842;2023-09-07T13:20:38;4.85;;;3.75;;
80541;SDS011;69870;51.460;8.842;2023-09-07T13:23:09;7.00;;;4.18;;
80541;SDS011;69870;51.460;8.842;2023-09-07T13:25:36;6.03;;;4.03;;
80541;SDS011;69870;51.460;8.842;2023-09-07T13:28:03;5.15;;;4.30;;
80541;SDS011;69870;51.460;8.842;2023-09-07T13:30:30;5.03;;;4.05;;
80541;SDS011;69870;51.460;8.842;2023-09-07T13:32:57;5.68;;;3.90;;
80541;SDS011;69870;51.460;8.842;2023-09-07T13:35:25;8.63;;;4.15;;
80541;SDS011;69870;51.460;8.842;2023-09-07T13:37:51;4.95;;;3.53;;
80541;SDS011;69870;51.460;8.842;2023-09-07T13:40:18;9.20;;;3.53;;
80541;SDS011;69870;51.460;8.842;2023-09-07T13:42:49;6.78;;;3.33;;
80541;SDS011;69870;51.460;8.842;2023-09-07T13:45:16;5.30;;;3.33;;
80541;SDS011;69870;51.460;8.842;2023-09-07T13:47:42;5.70;;;3.30;;
80541;SDS011;69870;51.460;8.842;2023-09-07T13:50:11;5.30;;;3.95;;
80541;SDS011;69870;51.460;8.842;2023-09-07T13:52:38;6.00;;;3.50;;
80541;SDS011;69870;51.460;8.842;2023-09-07T13:55:05;5.60;;;4.07;;
80541;SDS011;69870;51.460;8.842;2023-09-07T13:57:32;6.68;;;3.42;;
80541;SDS011;69870;51.460;8.842;2023-09-07T13:59:58;8.80;;;3.80;;
80541;SDS011;69870;51.460;8.842;2023-09-07T14:02:25;5.03;;;3.70;;
80541;SDS011;69870;51.460;8.842;2023-09-07T14:04:52;4.72;;;3.50;;
80541;SDS011;69870;51.460;8.842;2023-09-07T14:07:19;5.03;;;2.85;;
80541;SDS011;69870;51.460;8.842;2023-09-07T14:09:46;6.68;;;3.65;;
80541;SDS011;69870;51.460;8.842;2023-09-07T14:12:13;6.03;;;4.05;;
80541;SDS011;69870;51.460;8.842;2023-09-07T14:14:39;9.05;;;3.60;;
80541;SDS011;69870;51.460;8.842;2023-09-07T14:17:06;7.93;;;3.10;;
80541;SDS011;69870;51.460;8.842;2023-09-07T14:19:32;10.65;;;3.83;;
80541;SDS011;69870;51.460;8.842;2023-09-07T14:21:59;7.03;;;3.22;;
80541;SDS011;69870;51.460;8.842;2023-09-07T14:24:27;5.07;;;3.30;;
80541;SDS011;69870;51.460;8.842;2023-09-07T14:26:53;10.15;;;3.63;;
80541;SDS011;69870;51.460;8.842;2023-09-07T14:29:20;7.63;;;3.63;;
80541;SDS011;69870;51.460;8.842;2023-09-07T14:31:47;8.73;;;3.70;;
80541;SDS011;69870;51.460;8.842;2023-09-07T14:34:13;9.52;;;3.72;;
80541;SDS011;69870;51.460;8.842;2023-09-07T14:36:40;7.55;;;3.00;;
80541;SDS011;69870;51.460;8.842;2023-09-07T14:39:07;6.28;;;3.17;;
80541;SDS011;69870;51.460;8.842;2023-09-07T14:41:35;6.25;;;3.72;;